sensor_id;sensor_type;location;lat;lon;timestamp;pressure;altitude;pressure_sealevel;temperature
73761;BMP280;69240;43.530;-5.646;2023-08-08T00:00:55;101754.16;;;19.12
73761;BMP280;69240;43.530;-5.646;2023-08-08T00:03:24;101755.16;;;19.09
73761;BMP280;69240;43.530;-5.646;2023-08-08T00:05:49;101757.84;;;19.09
73761;BMP280;69240;43.530;-5.646;2023-08-08T00:08:15;101746.25;;;19.03
73761;BMP280;69240;43.530;-5.646;2023-08-08T00:10:41;101744.25;;;18.98
73761;BMP280;69240;43.530;-5.646;2023-08-08T00:13:06;101748.69;;;19.01
73761;BMP280;69240;43.530;-5.646;2023-08-08T00:15:32;101740.06;;;18.97
73761;BMP280;69240;43.530;-5.646;2023-08-08T00:17:58;101744.72;;;18.91
73761;BMP280;69240;43.530;-5.646;2023-08-08T00:20:23;101731.91;;;18.86
73761;BMP280;69240;43.530;-5.646;2023-08-08T00:22:49;101734.81;;;18.88
73761;BMP280;69240;43.530;-5.646;2023-08-08T00:25:14;101742.97;;;18.88
73761;BMP280;69240;43.530;-5.646;2023-08-08T00:27:40;101742.00;;;18.86
73761;BMP280;69240;43.530;-5.646;2023-08-08T00:30:10;101739.50;;;18.82
73761;BMP280;69240;43.530;-5.646;2023-08-08T00:32:36;101731.38;;;18.82
73761;BMP280;69240;43.530;-5.646;2023-08-08T00:35:01;101732.34;;;18.79
73761;BMP280;69240;43.530;-5.646;2023-08-08T00:37:27;101729.84;;;18.70
73761;BMP280;69240;43.530;-5.646;2023-08-08T00:39:52;101731.81;;;18.70
73761;BMP280;69240;43.530;-5.646;2023-08-08T00:42:18;101729.84;;;18.70
73761;BMP280;69240;43.530;-5.646;2023-08-08T00:44:43;101737.72;;;18.68
73761;BMP280;69240;43.530;-5.646;2023-08-08T00:47:09;101724.88;;;18.63
73761;BMP280;69240;43.530;-5.646;2023-08-08T00:49:35;101720.16;;;18.58
73761;BMP280;69240;43.530;-5.646;2023-08-08T00:52:02;101728.56;;;18.60
73761;BMP280;69240;43.530;-5.646;2023-08-08T00:54:28;101721.38;;;18.57
73761;BMP280;69240;43.530;-5.646;2023-08-08T00:56:54;101727.56;;;18.58
73761;BMP280;69240;43.530;-5.646;2023-08-08T00:59:19;101718.44;;;18.55
73761;BMP280;69240;43.530;-5.646;2023-08-08T01:01:45;101720.66;;;18.51
73761;BMP280;69240;43.530;-5.646;2023-08-08T01:04:11;101714.44;;;18.45
73761;BMP280;69240;43.530;-5.646;2023-08-08T01:06:40;101711.47;;;18.43
73761;BMP280;69240;43.530;-5.646;2023-08-08T01:09:30;101716.16;;;18.43
73761;BMP280;69240;43.530;-5.646;2023-08-08T01:11:56;101716.16;;;18.43
73761;BMP280;69240;43.530;-5.646;2023-08-08T01:14:23;101711.22;;;18.41
73761;BMP280;69240;43.530;-5.646;2023-08-08T01:16:50;101708.00;;;18.37
73761;BMP280;69240;43.530;-5.646;2023-08-08T01:19:25;101700.56;;;18.32
73761;BMP280;69240;43.530;-5.646;2023-08-08T01:21:53;101698.84;;;18.35
73761;BMP280;69240;43.530;-5.646;2023-08-08T01:24:23;101698.84;;;18.35
73761;BMP280;69240;43.530;-5.646;2023-08-08T01:26:51;101701.34;;;18.33
73761;BMP280;69240;43.530;-5.646;2023-08-08T01:29:16;101696.13;;;18.29
73761;BMP280;69240;43.530;-5.646;2023-08-08T01:31:42;101705.25;;;18.32
73761;BMP280;69240;43.530;-5.646;2023-08-08T01:34:07;101696.84;;;18.24
73761;BMP280;69240;43.530;-5.646;2023-08-08T01:36:40;101692.66;;;18.23
73761;BMP280;69240;43.530;-5.646;2023-08-08T01:39:12;101696.81;;;18.19
73761;BMP280;69240;43.530;-5.646;2023-08-08T01:41:41;101692.88;;;18.20
73761;BMP280;69240;43.530;-5.646;2023-08-08T01:44:07;101695.84;;;18.22
73761;BMP280;69240;43.530;-5.646;2023-08-08T01:46:33;101701.47;;;18.18
73761;BMP280;69240;43.530;-5.646;2023-08-08T01:48:59;101701.47;;;18.18
73761;BMP280;69240;43.530;-5.646;2023-08-08T01:51:25;101699.47;;;18.13
73761;BMP280;69240;43.530;-5.646;2023-08-08T01:53:52;101698.00;;;18.12
73761;BMP280;69240;43.530;-5.646;2023-08-08T01:56:17;101712.75;;;18.11
73761;BMP280;69240;43.530;-5.646;2023-08-08T01:58:43;101703.84;;;18.05
73761;BMP280;69240;43.530;-5.646;2023-08-08T02:01:08;101691.25;;;18.02
73761;BMP280;69240;43.530;-5.646;2023-08-08T02:03:34;101695.97;;;18.07
73761;BMP280;69240;43.530;-5.646;2023-08-08T02:05:59;101700.41;;;18.05
73761;BMP280;69240;43.530;-5.646;2023-08-08T02:08:25;101698.88;;;17.98
73761;BMP280;69240;43.530;-5.646;2023-08-08T02:10:50;101704.06;;;18.02
73761;BMP280;69240;43.530;-5.646;2023-08-08T02:13:16;101697.19;;;18.01
73761;BMP280;69240;43.530;-5.646;2023-08-08T02:15:41;101697.38;;;17.97
73761;BMP280;69240;43.530;-5.646;2023-08-08T02:18:07;101699.38;;;18.02
73761;BMP280;69240;43.530;-5.646;2023-08-08T02:20:34;101694.94;;;17.99
73761;BMP280;69240;43.530;-5.646;2023-08-08T02:23:00;101700.38;;;17.99
73761;BMP280;69240;43.530;-5.646;2023-08-08T02:25:25;101696.66;;;17.97
73761;BMP280;69240;43.530;-5.646;2023-08-08T02:27:51;101691.97;;;17.92
73761;BMP280;69240;43.530;-5.646;2023-08-08T02:30:16;101691.41;;;17.88
73761;BMP280;69240;43.530;-5.646;2023-08-08T02:32:42;101696.59;;;17.86
73761;BMP280;69240;43.530;-5.646;2023-08-08T02:35:08;101690.13;;;17.83
73761;BMP280;69240;43.530;-5.646;2023-08-08T02:37:33;101683.22;;;17.77
73761;BMP280;69240;43.530;-5.646;2023-08-08T02:39:59;101687.44;;;17.83
73761;BMP280;69240;43.530;-5.646;2023-08-08T02:42:24;101681.50;;;17.79
73761;BMP280;69240;43.530;-5.646;2023-08-08T02:44:50;101684.72;;;17.78
73761;BMP280;69240;43.530;-5.646;2023-08-08T02:47:15;101683.97;;;17.77
73761;BMP280;69240;43.530;-5.646;2023-08-08T02:49:41;101676.53;;;17.72
73761;BMP280;69240;43.530;-5.646;2023-08-08T02:52:06;101677.75;;;17.71
73761;BMP280;69240;43.530;-5.646;2023-08-08T02:54:32;101674.31;;;17.71
73761;BMP280;69240;43.530;-5.646;2023-08-08T02:56:57;101667.63;;;17.66
73761;BMP280;69240;43.530;-5.646;2023-08-08T02:59:23;101672.06;;;17.69
73761;BMP280;69240;43.530;-5.646;2023-08-08T03:01:48;101667.91;;;17.68
73761;BMP280;69240;43.530;-5.646;2023-08-08T03:04:14;101673.78;;;17.67
73761;BMP280;69240;43.530;-5.646;2023-08-08T03:06:40;101661.72;;;17.63
73761;BMP280;69240;43.530;-5.646;2023-08-08T03:09:05;101668.03;;;17.59
73761;BMP280;69240;43.530;-5.646;2023-08-08T03:11:31;101668.50;;;17.52
73761;BMP280;69240;43.530;-5.646;2023-08-08T03:13:56;101667.03;;;17.52
73761;BMP280;69240;43.530;-5.646;2023-08-08T03:16:22;101667.03;;;17.52
73761;BMP280;69240;43.530;-5.646;2023-08-08T03:18:47;101660.09;;;17.50
73761;BMP280;69240;43.530;-5.646;2023-08-08T03:21:13;101663.78;;;17.48
73761;BMP280;69240;43.530;-5.646;2023-08-08T03:23:38;101659.59;;;17.47
73761;BMP280;69240;43.530;-5.646;2023-08-08T03:26:04;101661.06;;;17.48
73761;BMP280;69240;43.530;-5.646;2023-08-08T03:28:29;101656.63;;;17.45
73761;BMP280;69240;43.530;-5.646;2023-08-08T03:30:55;101659.59;;;17.47
73761;BMP280;69240;43.530;-5.646;2023-08-08T03:33:20;101660.31;;;17.47
73761;BMP280;69240;43.530;-5.646;2023-08-08T03:35:46;101651.69;;;17.43
73761;BMP280;69240;43.530;-5.646;2023-08-08T03:38:11;101646.75;;;17.42
73761;BMP280;69240;43.530;-5.646;2023-08-08T03:40:37;101650.69;;;17.41
73761;BMP280;69240;43.530;-5.646;2023-08-08T03:43:03;101649.38;;;17.36
73761;BMP280;69240;43.530;-5.646;2023-08-08T03:45:28;101648.66;;;17.36
73761;BMP280;69240;43.530;-5.646;2023-08-08T03:47:54;101654.59;;;17.40
73761;BMP280;69240;43.530;-5.646;2023-08-08T03:50:19;101653.88;;;17.39
73761;BMP280;69240;43.530;-5.646;2023-08-08T03:52:45;101653.53;;;17.32
73761;BMP280;69240;43.530;-5.646;2023-08-08T03:55:11;101652.59;;;17.35
73761;BMP280;69240;43.530;-5.646;2023-08-08T03:57:36;101644.22;;;17.33
73761;BMP280;69240;43.530;-5.646;2023-08-08T04:00:02;101642.72;;;17.32
73761;BMP280;69240;43.530;-5.646;2023-08-08T04:02:28;101653.03;;;17.28
73761;BMP280;69240;43.530;-5.646;2023-08-08T04:04:54;101643.69;;;17.29
73761;BMP280;69240;43.530;-5.646;2023-08-08T04:07:19;101642.72;;;17.32
73761;BMP280;69240;43.530;-5.646;2023-08-08T04:09:44;101641.22;;;17.31
73761;BMP280;69240;43.530;-5.646;2023-08-08T04:12:10;101642.94;;;17.28
73761;BMP280;69240;43.530;-5.646;2023-08-08T04:14:36;101642.47;;;17.30
73761;BMP280;69240;43.530;-5.646;2023-08-08T04:17:01;101643.69;;;17.29
73761;BMP280;69240;43.530;-5.646;2023-08-08T04:19:28;101632.84;;;17.29
73761;BMP280;69240;43.530;-5.646;2023-08-08T04:21:53;101633.06;;;17.25
73761;BMP280;69240;43.530;-5.646;2023-08-08T04:24:19;101630.84;;;17.24
73761;BMP280;69240;43.530;-5.646;2023-08-08T04:26:45;101618.97;;;17.16
73761;BMP280;69240;43.530;-5.646;2023-08-08T04:29:10;101616.25;;;17.16
73761;BMP280;69240;43.530;-5.646;2023-08-08T04:31:36;101620.44;;;17.17
73761;BMP280;69240;43.530;-5.646;2023-08-08T04:34:01;101616.53;;;17.18
73761;BMP280;69240;43.530;-5.646;2023-08-08T04:36:27;101612.09;;;17.15
73761;BMP280;69240;43.530;-5.646;2023-08-08T04:38:53;101624.38;;;17.16
73761;BMP280;69240;43.530;-5.646;2023-08-08T04:41:18;101616.00;;;17.14
73761;BMP280;69240;43.530;-5.646;2023-08-08T04:43:45;101615.03;;;17.17
73761;BMP280;69240;43.530;-5.646;2023-08-08T04:46:11;101621.94;;;17.18
73761;BMP280;69240;43.530;-5.646;2023-08-08T04:48:36;101619.22;;;17.18
73761;BMP280;69240;43.530;-5.646;2023-08-08T04:51:04;101612.50;;;17.08
73761;BMP280;69240;43.530;-5.646;2023-08-08T04:53:30;101611.22;;;17.03
73761;BMP280;69240;43.530;-5.646;2023-08-08T04:55:55;101607.53;;;17.01
73761;BMP280;69240;43.530;-5.646;2023-08-08T04:58:21;101607.53;;;17.01
73761;BMP280;69240;43.530;-5.646;2023-08-08T05:00:46;101607.53;;;17.01
73761;BMP280;69240;43.530;-5.646;2023-08-08T05:03:12;101614.38;;;17.02
73761;BMP280;69240;43.530;-5.646;2023-08-08T05:05:38;101611.16;;;16.98
73761;BMP280;69240;43.530;-5.646;2023-08-08T05:08:04;101607.91;;;16.94
73761;BMP280;69240;43.530;-5.646;2023-08-08T05:10:29;101620.50;;;16.97
73761;BMP280;69240;43.530;-5.646;2023-08-08T05:12:56;101619.75;;;16.96
73761;BMP280;69240;43.530;-5.646;2023-08-08T05:15:22;101607.19;;;16.93
73761;BMP280;69240;43.530;-5.646;2023-08-08T05:17:47;101604.97;;;16.92
73761;BMP280;69240;43.530;-5.646;2023-08-08T05:20:13;101614.53;;;16.93
73761;BMP280;69240;43.530;-5.646;2023-08-08T05:22:39;101613.06;;;16.92
73761;BMP280;69240;43.530;-5.646;2023-08-08T05:25:04;101623.19;;;16.97
73761;BMP280;69240;43.530;-5.646;2023-08-08T05:27:30;101617.78;;;16.97
73761;BMP280;69240;43.530;-5.646;2023-08-08T05:29:55;101615.13;;;17.02
73761;BMP280;69240;43.530;-5.646;2023-08-08T05:32:21;101616.16;;;17.05
73761;BMP280;69240;43.530;-5.646;2023-08-08T05:34:46;101622.16;;;17.14
73761;BMP280;69240;43.530;-5.646;2023-08-08T05:37:14;101622.59;;;17.13
73761;BMP280;69240;43.530;-5.646;2023-08-08T05:39:39;101616.00;;;17.14
73761;BMP280;69240;43.530;-5.646;2023-08-08T05:42:05;101618.03;;;17.19
73761;BMP280;69240;43.530;-5.646;2023-08-08T05:44:31;101629.34;;;17.23
73761;BMP280;69240;43.530;-5.646;2023-08-08T05:46:56;101620.03;;;17.24
73761;BMP280;69240;43.530;-5.646;2023-08-08T05:49:22;101627.22;;;17.32
73761;BMP280;69240;43.530;-5.646;2023-08-08T05:51:47;101631.22;;;17.67
73761;BMP280;69240;43.530;-5.646;2023-08-08T05:54:13;101635.28;;;19.05
73761;BMP280;69240;43.530;-5.646;2023-08-08T05:56:38;101636.69;;;18.84
73761;BMP280;69240;43.530;-5.646;2023-08-08T05:59:04;101666.28;;;20.66
73761;BMP280;69240;43.530;-5.646;2023-08-08T06:01:30;101659.56;;;21.66
73761;BMP280;69240;43.530;-5.646;2023-08-08T06:03:56;101677.16;;;22.50
73761;BMP280;69240;43.530;-5.646;2023-08-08T06:06:25;101686.72;;;23.38
73761;BMP280;69240;43.530;-5.646;2023-08-08T06:08:50;101695.97;;;23.99
73761;BMP280;69240;43.530;-5.646;2023-08-08T06:11:16;101701.72;;;24.55
73761;BMP280;69240;43.530;-5.646;2023-08-08T06:13:42;101709.56;;;25.13
73761;BMP280;69240;43.530;-5.646;2023-08-08T06:16:07;101716.50;;;25.62
73761;BMP280;69240;43.530;-5.646;2023-08-08T06:18:33;101714.72;;;26.15
73761;BMP280;69240;43.530;-5.646;2023-08-08T06:20:59;101714.66;;;26.58
73761;BMP280;69240;43.530;-5.646;2023-08-08T06:23:25;101720.91;;;27.11
73761;BMP280;69240;43.530;-5.646;2023-08-08T06:25:50;101712.59;;;27.33
73761;BMP280;69240;43.530;-5.646;2023-08-08T06:28:16;101722.63;;;27.60
73761;BMP280;69240;43.530;-5.646;2023-08-08T06:30:41;101712.50;;;27.70
73761;BMP280;69240;43.530;-5.646;2023-08-08T06:33:07;101714.38;;;28.07
73761;BMP280;69240;43.530;-5.646;2023-08-08T06:35:34;101706.88;;;28.32
73761;BMP280;69240;43.530;-5.646;2023-08-08T06:37:59;101715.88;;;28.33
73761;BMP280;69240;43.530;-5.646;2023-08-08T06:40:25;101709.84;;;29.17
73761;BMP280;69240;43.530;-5.646;2023-08-08T06:42:50;101720.38;;;29.28
73761;BMP280;69240;43.530;-5.646;2023-08-08T06:45:16;101715.94;;;29.15
73761;BMP280;69240;43.530;-5.646;2023-08-08T06:47:41;101715.91;;;29.76
73761;BMP280;69240;43.530;-5.646;2023-08-08T06:50:07;101705.78;;;30.05
73761;BMP280;69240;43.530;-5.646;2023-08-08T06:52:33;101718.06;;;30.20
73761;BMP280;69240;43.530;-5.646;2023-08-08T06:54:59;101718.44;;;30.43
73761;BMP280;69240;43.530;-5.646;2023-08-08T07:03:57;101638.88;;;26.70
73761;BMP280;69240;43.530;-5.646;2023-08-08T07:06:54;101648.88;;;26.15
73761;BMP280;69240;43.530;-5.646;2023-08-08T07:09:38;101649.28;;;25.76
73761;BMP280;69240;43.530;-5.646;2023-08-08T07:12:04;101641.50;;;25.52
73761;BMP280;69240;43.530;-5.646;2023-08-08T07:14:30;101638.38;;;25.20
73761;BMP280;69240;43.530;-5.646;2023-08-08T07:16:56;101633.09;;;24.94
73761;BMP280;69240;43.530;-5.646;2023-08-08T07:19:22;101634.25;;;24.78
73761;BMP280;69240;43.530;-5.646;2023-08-08T07:21:47;101635.03;;;24.45
73761;BMP280;69240;43.530;-5.646;2023-08-08T07:24:13;101638.34;;;24.31
73761;BMP280;69240;43.530;-5.646;2023-08-08T07:26:38;101636.91;;;23.71
73761;BMP280;69240;43.530;-5.646;2023-08-08T07:29:04;101629.44;;;22.38
73761;BMP280;69240;43.530;-5.646;2023-08-08T07:38:14;101613.84;;;22.20
73761;BMP280;69240;43.530;-5.646;2023-08-08T07:40:41;101618.81;;;21.55
73761;BMP280;69240;43.530;-5.646;2023-08-08T07:43:06;101620.75;;;21.60
73761;BMP280;69240;43.530;-5.646;2023-08-08T07:45:32;101629.59;;;21.66
73761;BMP280;69240;43.530;-5.646;2023-08-08T07:47:58;101638.31;;;21.35
73761;BMP280;69240;43.530;-5.646;2023-08-08T07:50:23;101630.19;;;21.59
73761;BMP280;69240;43.530;-5.646;2023-08-08T07:52:49;101631.75;;;21.49
73761;BMP280;69240;43.530;-5.646;2023-08-08T07:55:15;101636.38;;;21.30
73761;BMP280;69240;43.530;-5.646;2023-08-08T07:57:40;101634.56;;;21.38
73761;BMP280;69240;43.530;-5.646;2023-08-08T08:00:06;101630.91;;;21.30
73761;BMP280;69240;43.530;-5.646;2023-08-08T08:02:45;101629.38;;;21.40
73761;BMP280;69240;43.530;-5.646;2023-08-08T08:05:12;101622.13;;;21.19
73761;BMP280;69240;43.530;-5.646;2023-08-08T08:07:41;101621.66;;;21.44
73761;BMP280;69240;43.530;-5.646;2023-08-08T08:10:09;101617.13;;;21.28
73761;BMP280;69240;43.530;-5.646;2023-08-08T08:12:35;101613.03;;;21.40
73761;BMP280;69240;43.530;-5.646;2023-08-08T08:15:01;101618.75;;;21.36
73761;BMP280;69240;43.530;-5.646;2023-08-08T08:17:29;101614.06;;;21.37
73761;BMP280;69240;43.530;-5.646;2023-08-08T08:19:55;101614.16;;;21.26
73761;BMP280;69240;43.530;-5.646;2023-08-08T08:22:20;101621.41;;;21.18
73761;BMP280;69240;43.530;-5.646;2023-08-08T08:25:06;101631.72;;;21.25
73761;BMP280;69240;43.530;-5.646;2023-08-08T08:27:35;101626.97;;;21.31
73761;BMP280;69240;43.530;-5.646;2023-08-08T08:30:05;101626.69;;;21.34
73761;BMP280;69240;43.530;-5.646;2023-08-08T08:35:54;101624.09;;;21.47
73761;BMP280;69240;43.530;-5.646;2023-08-08T08:38:20;101617.16;;;21.46
73761;BMP280;69240;43.530;-5.646;2023-08-08T09:08:45;101622.25;;;21.61
73761;BMP280;69240;43.530;-5.646;2023-08-08T09:18:01;101619.47;;;22.03
73761;BMP280;69240;43.530;-5.646;2023-08-08T09:23:29;101610.22;;;22.12
73761;BMP280;69240;43.530;-5.646;2023-08-08T09:26:16;101610.66;;;22.16
73761;BMP280;69240;43.530;-5.646;2023-08-08T09:28:43;101604.78;;;22.12
73761;BMP280;69240;43.530;-5.646;2023-08-08T09:31:08;101609.94;;;22.15
73761;BMP280;69240;43.530;-5.646;2023-08-08T09:33:34;101603.31;;;22.11
73761;BMP280;69240;43.530;-5.646;2023-08-08T09:35:59;101611.41;;;21.98
73761;BMP280;69240;43.530;-5.646;2023-08-08T09:38:25;101605.94;;;21.98
73761;BMP280;69240;43.530;-5.646;2023-08-08T09:40:51;101600.78;;;22.13
73761;BMP280;69240;43.530;-5.646;2023-08-08T09:43:17;101602.28;;;22.14
73761;BMP280;69240;43.530;-5.646;2023-08-08T09:45:42;101590.91;;;22.10
73761;BMP280;69240;43.530;-5.646;2023-08-08T09:51:33;101603.88;;;22.22
73761;BMP280;69240;43.530;-5.646;2023-08-08T09:53:59;101606.56;;;22.28
73761;BMP280;69240;43.530;-5.646;2023-08-08T09:56:25;101604.63;;;22.23
73761;BMP280;69240;43.530;-5.646;2023-08-08T09:58:52;101611.38;;;22.35
73761;BMP280;69240;43.530;-5.646;2023-08-08T10:01:20;101606.81;;;22.43
73761;BMP280;69240;43.530;-5.646;2023-08-08T10:03:48;101610.16;;;22.36
73761;BMP280;69240;43.530;-5.646;2023-08-08T10:06:38;101606.25;;;22.13
73761;BMP280;69240;43.530;-5.646;2023-08-08T10:09:04;101600.63;;;22.24
73761;BMP280;69240;43.530;-5.646;2023-08-08T10:11:32;101595.94;;;22.24
73761;BMP280;69240;43.530;-5.646;2023-08-08T10:17:20;101598.41;;;22.04
73761;BMP280;69240;43.530;-5.646;2023-08-08T10:19:53;101586.66;;;21.96
73761;BMP280;69240;43.530;-5.646;2023-08-08T10:22:23;101597.88;;;22.11
73761;BMP280;69240;43.530;-5.646;2023-08-08T10:24:53;101596.22;;;22.21
73761;BMP280;69240;43.530;-5.646;2023-08-08T10:27:31;101601.69;;;22.21
73761;BMP280;69240;43.530;-5.646;2023-08-08T10:30:02;101592.28;;;22.22
73761;BMP280;69240;43.530;-5.646;2023-08-08T10:32:28;101601.84;;;22.28
73761;BMP280;69240;43.530;-5.646;2023-08-08T10:34:55;101591.22;;;22.25
73761;BMP280;69240;43.530;-5.646;2023-08-08T10:37:22;101594.38;;;22.29
73761;BMP280;69240;43.530;-5.646;2023-08-08T10:39:58;101592.28;;;22.22
73761;BMP280;69240;43.530;-5.646;2023-08-08T10:42:25;101583.53;;;22.42
73761;BMP280;69240;43.530;-5.646;2023-08-08T10:44:55;101581.03;;;22.44
73761;BMP280;69240;43.530;-5.646;2023-08-08T10:47:34;101587.97;;;22.45
73761;BMP280;69240;43.530;-5.646;2023-08-08T10:50:11;101588.38;;;22.49
73761;BMP280;69240;43.530;-5.646;2023-08-08T10:55:21;101573.63;;;22.57
73761;BMP280;69240;43.530;-5.646;2023-08-08T10:57:55;101568.88;;;22.45
73761;BMP280;69240;43.530;-5.646;2023-08-08T11:00:25;101577.44;;;22.49
73761;BMP280;69240;43.530;-5.646;2023-08-08T11:02:51;101575.97;;;22.66
73761;BMP280;69240;43.530;-5.646;2023-08-08T11:05:18;101557.69;;;22.61
73761;BMP280;69240;43.530;-5.646;2023-08-08T11:07:45;101567.06;;;22.66
73761;BMP280;69240;43.530;-5.646;2023-08-08T11:10:10;101560.75;;;22.71
73761;BMP280;69240;43.530;-5.646;2023-08-08T11:12:36;101563.28;;;22.69
73761;BMP280;69240;43.530;-5.646;2023-08-08T11:15:01;101557.63;;;22.80
73761;BMP280;69240;43.530;-5.646;2023-08-08T11:17:27;101548.13;;;22.68
73761;BMP280;69240;43.530;-5.646;2023-08-08T11:19:54;101552.78;;;22.73
73761;BMP280;69240;43.530;-5.646;2023-08-08T11:22:23;101562.97;;;22.72
73761;BMP280;69240;43.530;-5.646;2023-08-08T11:24:49;101545.84;;;22.72
73761;BMP280;69240;43.530;-5.646;2023-08-08T11:27:16;101554.47;;;22.63
73761;BMP280;69240;43.530;-5.646;2023-08-08T11:29:49;101557.81;;;22.69
73761;BMP280;69240;43.530;-5.646;2023-08-08T11:32:16;101551.72;;;22.76
73761;BMP280;69240;43.530;-5.646;2023-08-08T11:34:41;101538.94;;;22.71
73761;BMP280;69240;43.530;-5.646;2023-08-08T11:37:07;101546.47;;;22.65
73761;BMP280;69240;43.530;-5.646;2023-08-08T11:39:34;101561.97;;;22.57
73761;BMP280;69240;43.530;-5.646;2023-08-08T11:41:59;101555.28;;;22.58
73761;BMP280;69240;43.530;-5.646;2023-08-08T11:44:26;101547.50;;;22.62
73761;BMP280;69240;43.530;-5.646;2023-08-08T11:46:52;101538.09;;;22.63
73761;BMP280;69240;43.530;-5.646;2023-08-08T11:49:17;101532.81;;;22.65
73761;BMP280;69240;43.530;-5.646;2023-08-08T11:51:44;101529.28;;;22.83
73761;BMP280;69240;43.530;-5.646;2023-08-08T11:54:11;101520.16;;;22.80
73761;BMP280;69240;43.530;-5.646;2023-08-08T11:56:37;101518.47;;;22.64
73761;BMP280;69240;43.530;-5.646;2023-08-08T11:59:04;101511.34;;;22.74
73761;BMP280;69240;43.530;-5.646;2023-08-08T12:01:32;101516.13;;;22.68
73761;BMP280;69240;43.530;-5.646;2023-08-08T12:03:58;101517.75;;;22.77
73761;BMP280;69240;43.530;-5.646;2023-08-08T12:06:28;101524.44;;;22.76
73761;BMP280;69240;43.530;-5.646;2023-08-08T12:08:54;101493.81;;;22.70
73761;BMP280;69240;43.530;-5.646;2023-08-08T12:11:20;101503.97;;;22.82
73761;BMP280;69240;43.530;-5.646;2023-08-08T12:13:45;101520.66;;;22.79
73761;BMP280;69240;43.530;-5.646;2023-08-08T12:16:12;101499.34;;;22.64
73761;BMP280;69240;43.530;-5.646;2023-08-08T12:18:39;101501.13;;;22.75
73761;BMP280;69240;43.530;-5.646;2023-08-08T12:21:08;101505.34;;;22.63
73761;BMP280;69240;43.530;-5.646;2023-08-08T12:23:35;101508.03;;;22.50
73761;BMP280;69240;43.530;-5.646;2023-08-08T12:26:04;101482.03;;;22.62
73761;BMP280;69240;43.530;-5.646;2023-08-08T12:28:33;101492.84;;;22.67
73761;BMP280;69240;43.530;-5.646;2023-08-08T12:30:59;101486.09;;;22.55
73761;BMP280;69240;43.530;-5.646;2023-08-08T12:33:24;101480.38;;;22.72
73761;BMP280;69240;43.530;-5.646;2023-08-08T12:35:50;101485.41;;;22.81
73761;BMP280;69240;43.530;-5.646;2023-08-08T12:38:15;101489.19;;;22.78
73761;BMP280;69240;43.530;-5.646;2023-08-08T12:40:41;101484.56;;;22.86
73761;BMP280;69240;43.530;-5.646;2023-08-08T12:43:09;101486.13;;;22.68
73761;BMP280;69240;43.530;-5.646;2023-08-08T12:45:35;101490.13;;;22.67
73761;BMP280;69240;43.530;-5.646;2023-08-08T12:48:00;101484.34;;;22.58
73761;BMP280;69240;43.530;-5.646;2023-08-08T12:50:25;101514.34;;;22.58
73761;BMP280;69240;43.530;-5.646;2023-08-08T12:52:51;101491.03;;;22.57
73761;BMP280;69240;43.530;-5.646;2023-08-08T12:55:17;101495.63;;;22.49
73761;BMP280;69240;43.530;-5.646;2023-08-08T12:57:43;101489.28;;;22.59
73761;BMP280;69240;43.530;-5.646;2023-08-08T13:00:10;101492.22;;;22.61
73761;BMP280;69240;43.530;-5.646;2023-08-08T13:02:37;101492.94;;;22.62
73761;BMP280;69240;43.530;-5.646;2023-08-08T13:05:03;101508.25;;;22.65
73761;BMP280;69240;43.530;-5.646;2023-08-08T13:07:29;101496.25;;;22.42
73761;BMP280;69240;43.530;-5.646;2023-08-08T13:09:54;101505.00;;;22.53
73761;BMP280;69240;43.530;-5.646;2023-08-08T13:12:20;101515.25;;;22.47
73761;BMP280;69240;43.530;-5.646;2023-08-08T13:14:46;101506.97;;;22.53
73761;BMP280;69240;43.530;-5.646;2023-08-08T13:17:12;101500.78;;;22.52
73761;BMP280;69240;43.530;-5.646;2023-08-08T13:19:37;101488.13;;;22.55
73761;BMP280;69240;43.530;-5.646;2023-08-08T13:22:03;101495.25;;;22.71
73761;BMP280;69240;43.530;-5.646;2023-08-08T13:24:28;101488.16;;;22.81
73761;BMP280;69240;43.530;-5.646;2023-08-08T13:26:54;101504.59;;;22.62
73761;BMP280;69240;43.530;-5.646;2023-08-08T13:29:19;101506.19;;;22.71
73761;BMP280;69240;43.530;-5.646;2023-08-08T13:31:45;101497.38;;;22.78
73761;BMP280;69240;43.530;-5.646;2023-08-08T13:34:10;101482.59;;;22.99
73761;BMP280;69240;43.530;-5.646;2023-08-08T13:36:36;101494.66;;;23.17
73761;BMP280;69240;43.530;-5.646;2023-08-08T13:39:02;101494.25;;;22.74
73761;BMP280;69240;43.530;-5.646;2023-08-08T13:41:28;101481.84;;;22.73
73761;BMP280;69240;43.530;-5.646;2023-08-08T13:43:54;101471.78;;;22.81
73761;BMP280;69240;43.530;-5.646;2023-08-08T13:46:19;101473.25;;;22.82
73761;BMP280;69240;43.530;-5.646;2023-08-08T13:48:45;101481.63;;;22.84
73761;BMP280;69240;43.530;-5.646;2023-08-08T13:51:10;101476.81;;;22.77
73761;BMP280;69240;43.530;-5.646;2023-08-08T13:53:36;101459.59;;;22.69
73761;BMP280;69240;43.530;-5.646;2023-08-08T13:56:01;101466.97;;;22.74
73761;BMP280;69240;43.530;-5.646;2023-08-08T13:58:27;101461.28;;;22.85
73761;BMP280;69240;43.530;-5.646;2023-08-08T14:00:52;101441.75;;;22.94
73761;BMP280;69240;43.530;-5.646;2023-08-08T14:03:18;101451.94;;;23.06
73761;BMP280;69240;43.530;-5.646;2023-08-08T14:05:44;101454.22;;;23.02
73761;BMP280;69240;43.530;-5.646;2023-08-08T14:08:10;101448.03;;;23.15
73761;BMP280;69240;43.530;-5.646;2023-08-08T14:10:36;101443.19;;;23.21
73761;BMP280;69240;43.530;-5.646;2023-08-08T14:13:02;101465.47;;;23.25
73761;BMP280;69240;43.530;-5.646;2023-08-08T14:15:28;101453.78;;;23.24
73761;BMP280;69240;43.530;-5.646;2023-08-08T14:17:54;101454.53;;;23.25
73761;BMP280;69240;43.530;-5.646;2023-08-08T14:20:19;101449.63;;;23.44
73761;BMP280;69240;43.530;-5.646;2023-08-08T14:22:45;101469.84;;;23.28
73761;BMP280;69240;43.530;-5.646;2023-08-08T14:25:12;101446.53;;;23.27
73761;BMP280;69240;43.530;-5.646;2023-08-08T14:27:37;101446.94;;;23.31
73761;BMP280;69240;43.530;-5.646;2023-08-08T14:30:03;101446.38;;;23.45
73761;BMP280;69240;43.530;-5.646;2023-08-08T14:32:29;101449.72;;;23.51
73761;BMP280;69240;43.530;-5.646;2023-08-08T14:34:54;101444.19;;;23.44
73761;BMP280;69240;43.530;-5.646;2023-08-08T14:37:20;101441.91;;;23.35
73761;BMP280;69240;43.530;-5.646;2023-08-08T14:39:46;101429.50;;;23.34
73761;BMP280;69240;43.530;-5.646;2023-08-08T14:42:12;101426.25;;;23.35
73761;BMP280;69240;43.530;-5.646;2023-08-08T14:44:38;101428.38;;;23.16